Time;durP1;ratioP1;P1;durP2;ratioP2;P2;SDS_P1;SDS_P2;PMS_P1;PMS_P2;Temp;Humidity;BMP_temperature;BMP_pressure;BME280_temperature;BME280_humidity;BME280_pressure;Samples;Min_cycle;Max_cycle;Signal;HPM_P1;HPM_P2
2021/06/04 00:00:22;;;;;;;6.00;5.30;;;19.50;99.90;;;;;;5035748;28;20204;-74
2021/06/04 00:02:50;;;;;;;5.63;4.65;;;19.50;99.90;;;;;;5035449;28;20220;-74
2021/06/04 00:05:19;;;;;;;5.37;4.87;;;19.40;99.90;;;;;;5035637;28;20677;-75
2021/06/04 00:07:45;;;;;;;5.68;4.90;;;19.30;99.90;;;;;;5035742;28;20444;-75
2021/06/04 00:10:17;;;;;;;5.10;4.60;;;19.30;99.90;;;;;;5034854;28;20228;-75
2021/06/04 00:12:43;;;;;;;5.40;4.90;;;19.20;99.90;;;;;;5036074;28;20416;-75
2021/06/04 00:15:11;;;;;;;5.40;4.90;;;19.20;99.90;;;;;;5036015;28;20633;-75
2021/06/04 00:17:40;;;;;;;5.43;4.93;;;19.20;99.90;;;;;;5035383;28;20450;-75
2021/06/04 00:20:09;;;;;;;6.10;5.40;;;19.20;99.90;;;;;;5035195;28;20299;-75
2021/06/04 00:22:36;;;;;;;6.05;5.55;;;19.10;99.90;;;;;;5035611;28;20550;-75
2021/06/04 00:25:03;;;;;;;6.30;5.30;;;19.10;99.90;;;;;;5035591;28;20250;-75
2021/06/04 00:27:29;;;;;;;5.38;4.85;;;19.10;99.90;;;;;;5035173;28;20206;-75
2021/06/04 00:29:55;;;;;;;5.63;4.70;;;19.00;99.90;;;;;;5035348;28;20232;-74
2021/06/04 00:32:22;;;;;;;5.80;5.20;;;19.00;99.90;;;;;;5034954;28;20342;-75
2021/06/04 00:34:51;;;;;;;6.60;5.28;;;19.00;99.90;;;;;;5035206;28;20204;-75
2021/06/04 00:37:19;;;;;;;5.93;5.43;;;18.90;99.90;;;;;;5035270;28;20204;-75
2021/06/04 00:39:46;;;;;;;6.47;5.53;;;18.90;99.90;;;;;;5035357;28;20238;-75
2021/06/04 00:42:20;;;;;;;5.93;5.32;;;18.90;99.90;;;;;;5034723;28;20223;-75
2021/06/04 00:44:49;;;;;;;5.55;5.05;;;18.90;99.90;;;;;;5034874;28;20204;-74
2021/06/04 00:47:15;;;;;;;5.72;5.22;;;18.90;99.90;;;;;;5034928;28;20290;-74
2021/06/04 00:49:41;;;;;;;5.32;4.82;;;18.90;99.90;;;;;;5034725;28;20331;-74
2021/06/04 00:52:13;;;;;;;6.57;5.82;;;18.90;99.90;;;;;;5034238;28;20355;-74
2021/06/04 00:54:40;;;;;;;5.47;4.97;;;18.90;99.90;;;;;;5034780;28;20327;-74
2021/06/04 00:57:07;;;;;;;5.80;5.20;;;18.90;99.90;;;;;;5035059;28;20287;-74
2021/06/04 00:59:37;;;;;;;5.80;5.30;;;18.90;99.90;;;;;;5034679;28;20267;-74
2021/06/04 01:02:05;;;;;;;5.90;5.28;;;18.80;99.90;;;;;;5034194;28;20828;-74
2021/06/04 01:04:32;;;;;;;5.50;5.00;;;18.70;99.90;;;;;;5034615;28;20215;-74
2021/06/04 01:07:06;;;;;;;5.88;5.30;;;18.70;99.90;;;;;;5034764;28;20200;-74
2021/06/04 01:09:59;;;;;;;8.52;5.15;;;18.70;99.90;;;;;;5034280;28;20224;-74
2021/06/04 01:12:57;;;;;;;6.00;5.40;;;18.70;99.90;;;;;;5034276;28;20690;-74
2021/06/04 01:15:48;;;;;;;5.05;4.55;;;18.70;99.90;;;;;;5028059;28;20246;-74
2021/06/04 01:18:23;;;;;;;8.60;5.22;;;18.70;99.90;;;;;;5034357;28;20236;-74
2021/06/04 01:20:54;;;;;;;7.28;5.60;;;18.50;99.90;;;;;;5033339;28;20296;-74
2021/06/04 01:23:38;;;;;;;8.60;5.80;;;18.40;99.90;;;;;;5034100;28;20184;-74
2021/06/04 01:26:12;;;;;;;6.55;5.85;;;18.40;99.90;;;;;;5034505;28;20303;-74
2021/06/04 01:28:43;;;;;;;14.18;5.80;;;18.40;99.90;;;;;;5033875;28;20678;-74
2021/06/04 01:31:14;;;;;;;7.47;5.32;;;18.50;99.90;;;;;;5033886;28;20224;-75
2021/06/04 01:33:47;;;;;;;5.93;5.32;;;18.50;99.90;;;;;;5034566;28;20249;-74
2021/06/04 01:36:17;;;;;;;6.18;5.57;;;18.50;99.90;;;;;;5034286;28;20302;-74
2021/06/04 01:38:46;;;;;;;5.90;5.40;;;18.50;99.90;;;;;;5034375;28;20199;-74
2021/06/04 01:41:16;;;;;;;7.80;5.78;;;18.50;99.90;;;;;;5033609;28;20227;-74
2021/06/04 01:43:46;;;;;;;6.13;5.53;;;18.60;99.90;;;;;;5033864;28;20219;-74
2021/06/04 01:46:17;;;;;;;8.45;6.55;;;18.60;99.90;;;;;;5033828;28;20211;-74
2021/06/04 01:48:47;;;;;;;6.93;5.88;;;18.60;99.90;;;;;;5034068;28;20311;-74
2021/06/04 01:51:20;;;;;;;7.13;6.05;;;18.60;99.90;;;;;;5033639;28;20338;-74
2021/06/04 01:53:50;;;;;;;7.60;5.43;;;18.60;99.90;;;;;;5033893;28;20291;-74
2021/06/04 01:56:22;;;;;;;5.72;5.22;;;18.50;99.90;;;;;;5033940;28;20255;-74
2021/06/04 01:58:52;;;;;;;8.18;5.30;;;18.50;99.90;;;;;;5033997;28;20600;-74
2021/06/04 02:01:22;;;;;;;8.55;5.40;;;18.50;99.90;;;;;;5033367;28;20228;-74
2021/06/04 02:03:49;;;;;;;5.80;5.20;;;18.50;99.90;;;;;;5034633;28;20293;-74
2021/06/04 02:06:15;;;;;;;5.60;5.10;;;18.50;99.90;;;;;;5033502;28;20220;-74
2021/06/04 02:08:44;;;;;;;6.20;5.60;;;18.50;99.90;;;;;;5033548;28;20220;-74
2021/06/04 02:11:14;;;;;;;6.60;6.00;;;18.50;99.90;;;;;;5033026;28;20229;-74
2021/06/04 02:13:44;;;;;;;6.95;5.35;;;18.60;99.90;;;;;;5034168;28;20234;-74
2021/06/04 02:16:23;;;;;;;5.60;5.10;;;18.50;99.90;;;;;;5033895;28;20650;-74
2021/06/04 02:18:58;;;;;;;5.80;5.20;;;18.40;99.90;;;;;;5033696;28;20634;-74
2021/06/04 02:21:29;;;;;;;6.30;5.70;;;18.40;99.90;;;;;;5033128;28;20266;-74
2021/06/04 02:24:04;;;;;;;7.28;5.20;;;18.40;99.90;;;;;;5033202;28;20195;-74
2021/06/04 02:26:35;;;;;;;8.80;5.30;;;18.40;99.90;;;;;;5033910;28;20293;-74
2021/06/04 02:29:08;;;;;;;6.35;5.50;;;18.40;99.90;;;;;;5033218;28;20227;-74
2021/06/04 02:31:40;;;;;;;5.60;5.10;;;18.40;99.90;;;;;;5033112;28;20236;-74
2021/06/04 02:34:18;;;;;;;6.90;5.68;;;18.30;99.90;;;;;;5037009;28;20279;-74
2021/06/04 02:36:48;;;;;;;6.22;5.63;;;18.30;99.90;;;;;;5037782;28;20211;-74
2021/06/04 02:39:17;;;;;;;6.28;5.68;;;18.30;99.90;;;;;;5037674;28;20204;-74
2021/06/04 02:41:48;;;;;;;7.68;5.93;;;18.30;99.90;;;;;;5036919;28;20277;-74
2021/06/04 02:44:21;;;;;;;7.30;6.60;;;18.30;99.90;;;;;;5037188;28;20216;-74
2021/06/04 02:46:51;;;;;;;6.18;5.68;;;18.30;99.90;;;;;;5037336;28;20301;-74
2021/06/04 02:49:19;;;;;;;6.82;6.13;;;18.20;99.90;;;;;;5037437;28;20230;-75
2021/06/04 02:51:56;;;;;;;8.00;6.43;;;18.20;99.90;;;;;;5036590;28;20231;-74
2021/06/04 02:54:26;;;;;;;7.07;6.38;;;18.20;99.90;;;;;;5036982;28;20650;-74
2021/06/04 02:56:54;;;;;;;10.35;6.38;;;18.10;99.90;;;;;;5037234;28;20254;-74
2021/06/04 02:59:25;;;;;;;8.05;6.70;;;17.90;99.90;;;;;;5037095;28;20719;-74
2021/06/04 03:01:55;;;;;;;10.35;6.80;;;18.00;99.90;;;;;;5036670;28;20259;-74
2021/06/04 03:04:21;;;;;;;7.80;7.05;;;17.90;99.90;;;;;;5037087;28;20207;-74
2021/06/04 03:06:51;;;;;;;8.35;7.07;;;17.80;99.90;;;;;;5036877;28;20298;-74
2021/06/04 03:09:20;;;;;;;7.57;6.78;;;17.80;99.90;;;;;;5036862;28;20251;-74
2021/06/04 03:11:48;;;;;;;7.15;6.45;;;17.90;99.90;;;;;;5036407;28;20298;-74
2021/06/04 03:14:16;;;;;;;7.18;6.45;;;18.10;99.90;;;;;;5037268;28;20208;-74
2021/06/04 03:16:44;;;;;;;9.73;7.13;;;18.10;99.90;;;;;;5036885;28;20250;-74
2021/06/04 03:19:13;;;;;;;6.80;6.20;;;18.10;99.90;;;;;;5036487;28;20196;-74
2021/06/04 03:21:42;;;;;;;7.03;5.90;;;18.20;99.90;;;;;;5036250;28;20224;-74
2021/06/04 03:24:12;;;;;;;8.45;7.45;;;18.20;99.90;;;;;;5036914;28;20204;-74
2021/06/04 03:26:40;;;;;;;7.88;6.13;;;18.20;99.90;;;;;;5036760;28;20207;-74
2021/06/04 03:29:09;;;;;;;9.15;7.53;;;18.30;99.90;;;;;;5036586;28;20220;-74
2021/06/04 03:31:39;;;;;;;8.85;6.57;;;18.20;99.90;;;;;;5036007;28;20232;-73
2021/06/04 03:34:08;;;;;;;8.23;6.20;;;18.30;99.90;;;;;;5036427;28;20311;-73
2021/06/04 03:36:39;;;;;;;7.43;5.90;;;18.20;99.90;;;;;;5036322;28;20208;-74
2021/06/04 03:39:09;;;;;;;7.70;6.07;;;18.20;99.90;;;;;;5036577;28;20294;-74
2021/06/04 03:41:36;;;;;;;8.18;6.80;;;18.20;99.90;;;;;;5036356;28;20238;-74
2021/06/04 03:44:04;;;;;;;9.82;7.05;;;18.30;99.90;;;;;;5035441;28;20214;-73
2021/06/04 03:46:31;;;;;;;7.00;6.38;;;18.20;99.90;;;;;;5035774;28;20204;-74
2021/06/04 03:48:57;;;;;;;7.63;6.07;;;18.20;99.90;;;;;;5036153;28;20318;-74
2021/06/04 03:51:29;;;;;;;7.32;6.45;;;18.20;99.90;;;;;;5035494;28;20316;-74
2021/06/04 03:53:55;;;;;;;7.05;6.38;;;18.20;99.90;;;;;;5036631;28;20642;-74
2021/06/04 03:56:23;;;;;;;6.97;6.00;;;18.30;99.90;;;;;;5035563;28;20208;-74
2021/06/04 03:58:50;;;;;;;7.78;6.95;;;18.20;99.90;;;;;;5035925;28;20315;-74
2021/06/04 04:01:24;;;;;;;7.15;6.45;;;18.30;99.90;;;;;;5035607;28;20230;-74
2021/06/04 04:03:50;;;;;;;7.57;6.75;;;18.30;99.90;;;;;;5036151;28;20246;-74
2021/06/04 04:06:17;;;;;;;7.57;6.78;;;18.30;99.90;;;;;;5036077;28;20204;-74
2021/06/04 04:08:45;;;;;;;7.95;6.75;;;18.40;99.90;;;;;;5035885;28;20649;-74
2021/06/04 04:11:11;;;;;;;7.00;6.40;;;18.40;99.90;;;;;;5035568;28;20585;-74
2021/06/04 04:13:38;;;;;;;7.63;6.45;;;18.30;99.90;;;;;;5035864;28;20204;-74
2021/06/04 04:16:05;;;;;;;6.93;6.22;;;18.30;99.90;;;;;;5035719;28;20210;-74
2021/06/04 04:18:32;;;;;;;8.32;6.18;;;18.20;99.90;;;;;;5035817;28;20286;-74
2021/06/04 04:21:01;;;;;;;7.65;6.50;;;18.30;99.90;;;;;;5035140;28;20204;-74
2021/06/04 04:23:29;;;;;;;8.05;6.30;;;18.40;99.90;;;;;;5035347;28;20200;-74
2021/06/04 04:25:57;;;;;;;7.43;6.70;;;18.30;99.90;;;;;;5035185;28;20227;-74
2021/06/04 04:28:27;;;;;;;7.70;6.50;;;18.20;99.90;;;;;;5035291;28;20200;-74
2021/06/04 04:30:54;;;;;;;7.10;6.40;;;18.10;99.90;;;;;;5034740;28;20239;-74
2021/06/04 04:33:21;;;;;;;8.55;7.07;;;18.30;99.90;;;;;;5035440;28;20673;-74
2021/06/04 04:35:48;;;;;;;9.38;7.65;;;18.20;99.90;;;;;;5035553;28;20647;-74
2021/06/04 04:38:20;;;;;;;8.95;7.53;;;18.20;99.90;;;;;;5034854;28;20219;-74
2021/06/04 04:40:48;;;;;;;8.55;7.70;;;18.30;99.90;;;;;;5034748;28;20235;-74
2021/06/04 04:43:16;;;;;;;7.97;7.18;;;18.30;99.90;;;;;;5035349;28;20214;-74
2021/06/04 04:45:43;;;;;;;7.70;7.00;;;18.50;99.90;;;;;;5035287;28;20374;-74
2021/06/04 04:48:10;;;;;;;10.60;6.82;;;18.50;99.90;;;;;;5035283;28;20296;-74
2021/06/04 04:50:38;;;;;;;7.38;6.68;;;18.60;99.90;;;;;;5034564;28;20224;-74
2021/06/04 04:53:05;;;;;;;7.82;6.88;;;18.70;99.90;;;;;;5034993;28;20228;-74
2021/06/04 04:55:35;;;;;;;9.43;6.55;;;18.90;99.90;;;;;;5034620;28;20200;-74
2021/06/04 04:58:02;;;;;;;7.82;6.72;;;18.90;99.90;;;;;;5034888;28;20204;-74
2021/06/04 05:00:30;;;;;;;7.85;6.97;;;18.90;99.90;;;;;;5034914;28;20199;-74
2021/06/04 05:02:59;;;;;;;10.00;6.90;;;18.90;99.90;;;;;;5034298;28;20224;-74
2021/06/04 05:05:27;;;;;;;9.95;7.10;;;19.00;99.90;;;;;;5034389;28;20207;-75
2021/06/04 05:07:54;;;;;;;7.35;6.60;;;19.10;99.90;;;;;;5035197;28;20208;-74
2021/06/04 05:10:20;;;;;;;7.85;6.35;;;19.10;99.90;;;;;;5034059;28;20235;-74
2021/06/04 05:12:47;;;;;;;8.25;6.80;;;19.20;99.90;;;;;;5034945;28;20225;-74
2021/06/04 05:15:17;;;;;;;8.13;6.35;;;19.30;99.90;;;;;;5034650;28;20204;-74
2021/06/04 05:17:45;;;;;;;7.18;6.53;;;19.20;99.90;;;;;;5034392;28;20635;-74
2021/06/04 05:20:13;;;;;;;7.65;6.45;;;19.30;99.90;;;;;;5034128;28;20206;-74
2021/06/04 05:22:40;;;;;;;7.43;6.65;;;19.30;99.90;;;;;;5034582;28;20223;-74
2021/06/04 05:25:09;;;;;;;7.60;6.90;;;19.40;99.90;;;;;;5034468;28;20200;-74
2021/06/04 05:27:36;;;;;;;8.25;7.45;;;19.20;99.90;;;;;;5034522;28;20200;-74
2021/06/04 05:30:06;;;;;;;8.05;7.25;;;19.20;99.90;;;;;;5034263;28;20220;-74
2021/06/04 05:32:32;;;;;;;6.97;6.28;;;19.10;99.90;;;;;;5034052;28;20375;-74
2021/06/04 05:35:00;;;;;;;7.47;6.63;;;19.00;99.90;;;;;;5034214;28;20310;-74
2021/06/04 05:37:26;;;;;;;7.72;6.93;;;19.20;99.90;;;;;;5034241;28;20200;-74
2021/06/04 05:39:52;;;;;;;8.48;7.57;;;19.20;99.90;;;;;;5034155;28;20202;-74
2021/06/04 05:42:19;;;;;;;8.00;7.20;;;19.20;99.90;;;;;;5033770;28;20236;-74
2021/06/04 05:44:47;;;;;;;9.32;7.43;;;19.30;99.90;;;;;;5033905;28;20291;-74
2021/06/04 05:47:14;;;;;;;9.48;7.68;;;19.40;99.90;;;;;;5034034;28;20550;-74
2021/06/04 05:49:41;;;;;;;7.63;6.93;;;19.40;99.90;;;;;;5033659;28;20232;-74
2021/06/04 05:52:10;;;;;;;7.70;7.00;;;19.60;99.90;;;;;;5033877;28;20221;-74
2021/06/04 05:54:38;;;;;;;7.95;7.00;;;19.70;99.90;;;;;;5033470;28;20493;-74
2021/06/04 05:57:05;;;;;;;8.23;7.50;;;19.90;99.90;;;;;;5034131;28;20666;-74
2021/06/04 05:59:32;;;;;;;9.35;8.05;;;20.00;99.90;;;;;;5033522;28;20914;-74
2021/06/04 06:01:59;;;;;;;8.37;7.20;;;20.00;99.90;;;;;;5033803;28;20559;-74
2021/06/04 06:04:25;;;;;;;8.93;8.00;;;19.90;99.90;;;;;;5033853;28;20439;-74
2021/06/04 06:06:53;;;;;;;8.50;7.70;;;19.90;99.90;;;;;;5033970;28;20451;-74
2021/06/04 06:09:21;;;;;;;10.63;8.03;;;19.90;99.90;;;;;;5033611;28;20476;-74
2021/06/04 06:11:48;;;;;;;13.32;7.00;;;19.90;99.90;;;;;;5033114;28;20475;-74
2021/06/04 06:14:15;;;;;;;8.77;7.80;;;20.00;99.90;;;;;;5033692;28;20243;-74
2021/06/04 06:16:42;;;;;;;7.53;6.73;;;20.20;99.90;;;;;;5033562;28;21003;-75
2021/06/04 06:19:12;;;;;;;8.70;7.10;;;20.40;99.90;;;;;;5033777;28;20532;-74
2021/06/04 06:21:41;;;;;;;8.80;7.90;;;20.50;99.90;;;;;;5033246;28;20464;-74
2021/06/04 06:24:08;;;;;;;8.00;7.20;;;20.50;99.90;;;;;;5033888;28;20485;-75
2021/06/04 06:26:36;;;;;;;8.37;7.57;;;20.70;99.90;;;;;;5033560;28;20847;-75
2021/06/04 06:29:05;;;;;;;8.30;7.50;;;20.80;99.90;;;;;;5033430;28;20449;-75
2021/06/04 06:31:35;;;;;;;7.97;6.63;;;20.90;99.90;;;;;;5033079;28;20573;-75
2021/06/04 06:34:01;;;;;;;7.70;6.40;;;20.90;99.90;;;;;;5033714;28;20780;-74
2021/06/04 06:36:31;;;;;;;8.07;7.27;;;21.10;99.90;;;;;;5033774;28;20451;-75
2021/06/04 06:38:58;;;;;;;7.77;6.90;;;21.20;99.90;;;;;;5033357;28;20940;-74
2021/06/04 06:41:26;;;;;;;8.50;7.10;;;21.20;99.90;;;;;;5032775;28;20484;-74
2021/06/04 06:43:54;;;;;;;9.07;6.53;;;21.30;99.90;;;;;;5033678;28;20540;-75
2021/06/04 06:46:22;;;;;;;6.97;6.37;;;21.40;99.90;;;;;;5033577;28;20450;-75
2021/06/04 06:48:49;;;;;;;7.53;5.60;;;21.50;99.90;;;;;;5033633;28;20530;-75
2021/06/04 06:51:16;;;;;;;6.93;5.60;;;21.50;99.90;;;;;;5033332;28;20539;-74
2021/06/04 06:53:43;;;;;;;6.50;5.50;;;21.60;99.90;;;;;;5033275;28;20441;-75
2021/06/04 06:56:13;;;;;;;7.10;5.60;;;21.40;99.90;;;;;;5033364;28;20553;-75
2021/06/04 06:58:40;;;;;;;5.47;4.97;;;21.40;99.90;;;;;;5033419;28;20860;-74
2021/06/04 07:01:08;;;;;;;6.63;5.13;;;21.50;99.90;;;;;;5032948;28;20527;-74
2021/06/04 07:03:38;;;;;;;6.20;5.60;;;21.60;99.90;;;;;;5033828;28;20450;-75
2021/06/04 07:06:08;;;;;;;5.77;5.27;;;21.60;99.90;;;;;;5032916;28;20453;-75
2021/06/04 07:08:34;;;;;;;5.17;4.60;;;21.60;99.90;;;;;;5033250;28;20438;-75
2021/06/04 07:11:02;;;;;;;6.10;5.03;;;21.60;99.90;;;;;;5032548;28;20496;-74
2021/06/04 07:13:29;;;;;;;6.37;5.50;;;21.60;99.90;;;;;;5033198;28;20488;-74
2021/06/04 07:15:57;;;;;;;5.90;5.00;;;21.50;99.90;;;;;;5033313;28;20442;-75
2021/06/04 07:18:26;;;;;;;5.70;4.43;;;21.50;99.90;;;;;;5033506;28;20503;-76
2021/06/04 07:20:53;;;;;;;5.83;5.33;;;21.40;99.90;;;;;;5039250;28;20536;-75
2021/06/04 07:23:20;;;;;;;5.80;4.67;;;21.40;99.90;;;;;;5036933;28;20497;-75
2021/06/04 07:25:47;;;;;;;5.67;4.53;;;21.60;99.90;;;;;;5036780;28;20512;-75
2021/06/04 07:28:15;;;;;;;6.30;4.63;;;21.60;99.90;;;;;;5036539;28;20704;-75
2021/06/04 07:30:44;;;;;;;5.63;5.03;;;21.60;99.90;;;;;;5036103;28;20885;-75
2021/06/04 07:33:14;;;;;;;6.00;5.20;;;21.60;99.90;;;;;;5035942;28;20484;-75
2021/06/04 07:35:42;;;;;;;5.40;4.87;;;21.80;99.90;;;;;;5036526;28;20556;-75
2021/06/04 07:38:09;;;;;;;4.73;4.27;;;21.90;99.90;;;;;;5036373;28;20525;-75
2021/06/04 07:40:36;;;;;;;7.47;5.30;;;21.80;99.90;;;;;;5036082;28;20538;-76
2021/06/04 07:43:06;;;;;;;6.47;5.00;;;21.70;99.90;;;;;;5034676;28;20475;-77
2021/06/04 07:45:34;;;;;;;5.97;5.03;;;21.70;99.90;;;;;;5034640;28;21081;-77
2021/06/04 07:48:01;;;;;;;5.30;4.30;;;21.60;99.90;;;;;;5035020;28;20492;-77
2021/06/04 07:50:27;;;;;;;6.53;4.70;;;21.80;99.90;;;;;;5034888;28;20855;-77
2021/06/04 07:52:57;;;;;;;8.30;4.97;;;22.20;99.90;;;;;;5034440;28;20470;-76
2021/06/04 07:55:25;;;;;;;6.00;4.67;;;22.30;99.90;;;;;;5034471;28;20457;-74
2021/06/04 07:57:52;;;;;;;5.73;5.10;;;22.50;99.90;;;;;;5034662;28;20537;-76
2021/06/04 08:00:23;;;;;;;5.33;4.83;;;22.70;99.90;;;;;;5034545;28;20984;-74
2021/06/04 08:02:49;;;;;;;4.63;4.23;;;22.80;99.90;;;;;;5034433;28;20567;-75
2021/06/04 08:05:17;;;;;;;7.07;5.07;;;22.80;99.90;;;;;;5034440;28;20451;-73
2021/06/04 08:07:44;;;;;;;6.33;5.13;;;22.90;99.90;;;;;;5034391;28;21024;-74
2021/06/04 08:10:14;;;;;;;6.73;4.97;;;23.30;99.90;;;;;;5034210;28;20576;-74
2021/06/04 08:12:42;;;;;;;4.87;4.47;;;23.90;99.90;;;;;;5034319;28;20877;-74
2021/06/04 08:15:12;;;;;;;4.50;4.10;;;24.40;99.90;;;;;;5034202;28;20451;-74
2021/06/04 08:17:38;;;;;;;5.30;4.80;;;25.00;99.90;;;;;;5034204;28;20962;-74
2021/06/04 08:20:10;;;;;;;6.60;5.33;;;25.40;99.90;;;;;;5034083;28;20558;-74
2021/06/04 08:22:40;;;;;;;5.20;4.70;;;25.70;99.90;;;;;;5034026;28;20502;-76
2021/06/04 08:25:07;;;;;;;5.30;4.80;;;26.10;99.90;;;;;;5033605;28;20464;-76
2021/06/04 08:27:34;;;;;;;6.17;4.83;;;27.50;96.30;;;;;;5034199;28;20456;-75
2021/06/04 08:30:01;;;;;;;4.90;4.60;;;27.90;94.50;;;;;;5033700;28;20483;-75
2021/06/04 08:32:28;;;;;;;6.00;5.37;;;28.20;94.50;;;;;;5033521;28;20994;-76
2021/06/04 08:34:54;;;;;;;5.70;4.80;;;28.70;93.10;;;;;;5033650;28;20464;-76
2021/06/04 08:37:20;;;;;;;5.40;4.90;;;29.30;90.60;;;;;;5033596;28;20534;-76
2021/06/04 08:39:47;;;;;;;5.63;5.23;;;30.00;87.80;;;;;;5033878;28;20541;-76
2021/06/04 08:42:27;;;;;;;5.80;4.57;;;30.20;86.00;;;;;;5033957;28;20601;-76
2021/06/04 08:45:16;;;;;;;5.17;4.67;;;31.00;83.20;;;;;;5033355;28;20489;-76
2021/06/04 08:47:45;;;;;;;4.60;4.20;;;32.60;77.40;;;;;;5033564;28;20500;-74
2021/06/04 08:50:25;;;;;;;5.13;4.63;;;33.20;71.90;;;;;;5033537;28;20565;-74
2021/06/04 08:52:59;;;;;;;6.00;4.70;;;33.30;65.70;;;;;;5033551;28;20846;-74
2021/06/04 08:55:34;;;;;;;5.30;4.80;;;33.90;62.60;;;;;;5033402;28;20438;-73
2021/06/04 08:58:11;;;;;;;5.17;4.73;;;34.00;61.70;;;;;;5033395;28;20455;-73
2021/06/04 09:00:43;;;;;;;5.60;5.10;;;34.60;59.60;;;;;;5033524;28;20813;-73
2021/06/04 09:03:21;;;;;;;5.27;4.70;;;33.90;60.10;;;;;;5033452;28;20471;-76
2021/06/04 09:05:52;;;;;;;5.77;5.20;;;34.30;60.40;;;;;;5033214;28;20584;-76
2021/06/04 09:08:23;;;;;;;5.40;5.00;;;34.80;58.60;;;;;;5033127;28;20944;-77
2021/06/04 09:10:52;;;;;;;8.80;4.90;;;35.40;56.30;;;;;;5032810;28;20522;-74
2021/06/04 09:13:23;;;;;;;6.10;5.60;;;35.30;55.00;;;;;;5033425;28;21006;-75
2021/06/04 09:15:54;;;;;;;6.00;5.40;;;34.80;54.90;;;;;;5033389;28;20447;-74
2021/06/04 09:18:25;;;;;;;5.43;4.97;;;33.90;57.60;;;;;;5033247;28;20455;-74
2021/06/04 09:20:56;;;;;;;5.50;5.00;;;33.60;57.00;;;;;;5032453;28;20964;-75
2021/06/04 09:23:26;;;;;;;5.43;5.03;;;33.30;57.50;;;;;;5033147;28;20592;-74
2021/06/04 09:25:53;;;;;;;4.90;4.50;;;33.90;56.30;;;;;;5033014;28;20541;-76
2021/06/04 09:28:30;;;;;;;5.83;5.33;;;34.60;55.70;;;;;;5032486;28;20455;-77
2021/06/04 09:31:00;;;;;;;5.90;5.40;;;34.30;54.80;;;;;;5032477;28;20539;-76
2021/06/04 09:33:30;;;;;;;5.07;4.57;;;34.20;55.60;;;;;;5032629;28;20533;-76
2021/06/04 09:36:08;;;;;;;5.17;4.67;;;34.00;55.60;;;;;;5032472;28;20847;-77
2021/06/04 09:38:40;;;;;;;5.80;5.20;;;34.10;54.90;;;;;;5033161;28;20529;-76
2021/06/04 09:41:20;;;;;;;6.00;4.50;;;33.60;55.90;;;;;;5032382;28;20530;-75
2021/06/04 09:43:49;;;;;;;5.37;4.87;;;33.40;59.10;;;;;;5031498;28;20450;-76
2021/06/04 09:46:29;;;;;;;4.80;4.50;;;33.80;55.80;;;;;;5032334;28;20443;-76
2021/06/04 09:48:57;;;;;;;4.93;4.27;;;33.60;56.80;;;;;;5033001;28;20441;-75
2021/06/04 09:51:27;;;;;;;4.53;4.13;;;33.00;58.90;;;;;;5032317;28;20901;-75
2021/06/04 09:53:54;;;;;;;6.17;4.20;;;33.30;56.70;;;;;;5032172;28;20936;-75
2021/06/04 09:56:32;;;;;;;5.03;4.63;;;33.40;57.10;;;;;;5032175;28;20533;-75
2021/06/04 09:59:01;;;;;;;5.17;4.77;;;32.90;57.10;;;;;;5032459;28;20512;-75
2021/06/04 10:01:30;;;;;;;5.80;5.30;;;32.20;59.10;;;;;;5032191;28;20471;-75
2021/06/04 10:04:00;;;;;;;7.30;4.70;;;32.00;60.00;;;;;;5032083;28;20451;-75
2021/06/04 10:06:34;;;;;;;5.03;4.60;;;31.80;61.20;;;;;;5032130;28;20453;-75
2021/06/04 10:09:05;;;;;;;4.80;4.27;;;31.60;63.00;;;;;;5032137;28;20988;-76
2021/06/04 10:11:47;;;;;;;6.10;4.40;;;31.40;63.30;;;;;;5031621;28;20880;-76
2021/06/04 10:14:25;;;;;;;4.23;3.90;;;31.20;63.80;;;;;;5032122;28;20542;-76
2021/06/04 10:17:14;;;;;;;4.47;4.17;;;31.20;64.50;;;;;;5032068;28;20537;-75
2021/06/04 10:19:42;;;;;;;4.60;4.07;;;31.50;64.00;;;;;;5032000;28;20544;-75
2021/06/04 10:22:26;;;;;;;4.73;4.43;;;32.30;62.50;;;;;;5031776;28;20550;-75
2021/06/04 10:25:14;;;;;;;4.20;3.90;;;33.20;59.80;;;;;;5028428;28;20542;-75
2021/06/04 10:27:44;;;;;;;5.40;4.70;;;33.60;58.60;;;;;;5032114;28;20882;-75
2021/06/04 10:30:14;;;;;;;4.57;4.27;;;33.90;56.80;;;;;;5032136;28;20565;-76
2021/06/04 10:32:46;;;;;;;5.10;4.60;;;33.80;57.50;;;;;;5031661;28;20561;-76
2021/06/04 10:35:20;;;;;;;5.63;4.67;;;33.30;57.80;;;;;;5032168;28;20462;-75
2021/06/04 10:37:53;;;;;;;4.97;4.57;;;32.30;60.60;;;;;;5031803;28;20458;-76
2021/06/04 10:40:25;;;;;;;5.30;4.80;;;31.20;63.00;;;;;;5031749;28;20861;-76
2021/06/04 10:43:30;;;;;;;5.10;4.70;;;30.80;64.60;;;;;;5031862;28;20481;-75
2021/06/04 10:46:04;;;;;;;5.10;4.70;;;30.20;68.40;;;;;;5031584;28;20927;-75
2021/06/04 10:48:47;;;;;;;4.67;4.27;;;29.50;69.40;;;;;;5031848;28;20557;-75
2021/06/04 10:51:22;;;;;;;4.50;4.10;;;28.90;71.40;;;;;;5031574;28;20490;-75
2021/06/04 10:53:57;;;;;;;5.20;4.30;;;28.20;76.40;;;;;;5032555;28;20446;-75
2021/06/04 10:56:33;;;;;;;5.20;4.70;;;27.90;78.40;;;;;;5035548;28;20451;-75
2021/06/04 10:59:09;;;;;;;4.67;4.37;;;27.70;78.70;;;;;;5035421;28;20474;-75
2021/06/04 11:01:41;;;;;;;4.87;4.50;;;27.50;81.30;;;;;;5034989;28;20450;-75
2021/06/04 11:04:13;;;;;;;5.10;4.70;;;27.40;82.30;;;;;;5035440;28;20446;-75
2021/06/04 11:06:53;;;;;;;4.90;4.47;;;27.20;90.10;;;;;;5035350;28;20446;-75
2021/06/04 11:09:22;;;;;;;5.13;4.63;;;27.00;91.40;;;;;;5035713;28;20438;-75
2021/06/04 11:12:08;;;;;;;4.63;4.23;;;26.80;94.30;;;;;;5035509;28;20455;-75
2021/06/04 11:14:49;;;;;;;5.33;4.83;;;26.40;96.10;;;;;;5035509;28;20435;-75
2021/06/04 11:17:24;;;;;;;5.13;4.30;;;26.10;96.70;;;;;;5035233;28;20481;-75
2021/06/04 11:19:54;;;;;;;5.10;4.60;;;25.90;99.00;;;;;;5034802;28;20448;-74
2021/06/04 11:22:25;;;;;;;5.77;4.40;;;25.80;98.80;;;;;;5035382;28;20816;-75
2021/06/04 11:24:56;;;;;;;5.33;4.83;;;25.80;99.90;;;;;;5035016;28;21027;-75
2021/06/04 11:27:27;;;;;;;4.83;4.20;;;25.70;99.90;;;;;;5035029;28;20811;-75
2021/06/04 11:29:55;;;;;;;5.90;4.80;;;25.60;99.90;;;;;;5034610;28;20607;-74
2021/06/04 11:32:26;;;;;;;5.77;4.50;;;25.40;99.90;;;;;;5034600;28;20574;-74
2021/06/04 11:34:59;;;;;;;6.93;5.63;;;25.30;99.90;;;;;;5035009;28;20519;-74
2021/06/04 11:37:32;;;;;;;7.20;5.50;;;25.00;99.90;;;;;;5034903;28;20507;-75
2021/06/04 11:40:07;;;;;;;8.33;5.87;;;24.50;99.90;;;;;;5034482;28;20933;-75
2021/06/04 11:42:47;;;;;;;7.47;6.07;;;24.30;99.90;;;;;;5034714;28;20504;-75
2021/06/04 11:45:17;;;;;;;15.10;6.17;;;24.30;99.90;;;;;;5034781;28;20543;-75
2021/06/04 11:47:43;;;;;;;8.63;5.90;;;24.00;99.90;;;;;;5035302;28;20598;-75
2021/06/04 11:50:34;;;;;;;7.13;6.43;;;23.80;99.90;;;;;;5034797;28;20566;-75
2021/06/04 11:53:26;;;;;;;7.87;5.80;;;23.60;99.90;;;;;;5034875;28;20546;-75
2021/06/04 11:55:54;;;;;;;6.87;6.17;;;23.50;99.90;;;;;;5034608;28;20447;-75
2021/06/04 11:58:56;;;;;;;7.27;6.40;;;23.50;99.90;;;;;;5034523;28;20450;-76
2021/06/04 12:01:38;;;;;;;9.43;6.37;;;23.20;99.90;;;;;;5029064;28;20632;-76
2021/06/04 12:04:10;;;;;;;6.43;5.83;;;22.70;99.90;;;;;;5034503;28;20443;-76
2021/06/04 12:06:53;;;;;;;6.70;6.10;;;22.70;99.90;;;;;;5033594;28;20478;-75
2021/06/04 12:09:50;;;;;;;6.77;5.63;;;22.50;99.90;;;;;;5034066;28;20447;-75
2021/06/04 12:12:52;;;;;;;8.27;7.57;;;22.40;99.90;;;;;;5034222;28;20661;-75
2021/06/04 12:15:43;;;;;;;5.90;5.30;;;22.70;99.90;;;;;;5034248;28;20454;-75
2021/06/04 12:18:49;;;;;;;6.70;5.27;;;22.70;99.90;;;;;;5033902;28;20475;-76
2021/06/04 12:22:05;;;;;;;7.00;6.30;;;22.60;99.90;;;;;;5033784;28;20470;-75
2021/06/04 12:25:03;;;;;;;6.53;5.73;;;22.30;99.90;;;;;;5033826;28;20455;-75
2021/06/04 12:28:02;;;;;;;7.57;6.87;;;22.30;99.90;;;;;;5034552;28;20842;-77
2021/06/04 12:31:07;;;;;;;5.87;5.20;;;22.60;99.90;;;;;;5033607;28;20880;-76
2021/06/04 12:33:54;;;;;;;7.33;6.13;;;22.80;99.90;;;;;;5004057;28;20534;-76
2021/06/04 12:36:53;;;;;;;6.13;5.00;;;22.70;99.90;;;;;;5033739;28;20506;-77
2021/06/04 12:39:35;;;;;;;6.10;5.40;;;22.90;99.90;;;;;;5033369;28;20493;-77
2021/06/04 12:42:06;;;;;;;6.17;5.10;;;22.70;99.90;;;;;;5033657;28;20478;-77
2021/06/04 12:44:33;;;;;;;5.03;4.53;;;22.60;99.90;;;;;;5033495;28;20549;-76
2021/06/04 12:46:59;;;;;;;7.67;4.87;;;22.50;99.90;;;;;;5033529;28;20512;-76
2021/06/04 12:49:27;;;;;;;4.33;3.90;;;22.30;99.90;;;;;;5033171;28;20447;-74
2021/06/04 12:51:54;;;;;;;7.40;4.57;;;21.90;99.90;;;;;;5033507;28;20493;-76
2021/06/04 12:54:24;;;;;;;5.90;5.10;;;21.40;99.90;;;;;;5033404;28;20545;-74
2021/06/04 12:56:53;;;;;;;7.63;5.67;;;21.30;99.90;;;;;;5034071;28;20538;-73
2021/06/04 12:59:23;;;;;;;9.13;6.90;;;20.90;99.90;;;;;;5033438;28;20456;-73
2021/06/04 13:01:57;;;;;;;9.43;5.57;;;20.90;99.90;;;;;;5033449;28;20469;-74
2021/06/04 13:04:27;;;;;;;7.47;6.77;;;21.10;99.90;;;;;;5033357;28;20487;-75
2021/06/04 13:06:55;;;;;;;6.40;5.80;;;21.20;99.90;;;;;;5033133;28;20445;-74